createdAt,value
2018-09-16T00:00:07.531Z,11.23
2018-09-16T00:02:36.854Z,11.22
2018-09-16T00:05:06.940Z,11.26
2018-09-16T00:07:35.519Z,11.22
2018-09-16T00:10:03.808Z,11.21
2018-09-16T00:12:32.184Z,11.23
2018-09-16T00:15:00.532Z,11.18
2018-09-16T00:17:28.865Z,11.18
2018-09-16T00:19:57.161Z,11.20
2018-09-16T00:22:25.516Z,11.17
2018-09-16T00:24:53.775Z,11.11
2018-09-16T00:27:22.920Z,11.15
2018-09-16T00:29:51.246Z,11.10
2018-09-16T00:32:25.177Z,11.14
2018-09-16T00:35:00.002Z,11.19
2018-09-16T00:37:28.430Z,11.16
2018-09-16T00:39:56.965Z,11.08
2018-09-16T00:42:25.345Z,10.98
2018-09-16T00:44:53.663Z,10.97
2018-09-16T00:47:21.996Z,11.03
2018-09-16T00:49:50.635Z,10.82
2018-09-16T00:52:19.022Z,10.80
2018-09-16T00:54:47.773Z,10.87
2018-09-16T00:57:16.311Z,10.90
2018-09-16T00:59:44.688Z,10.90
2018-09-16T01:02:13.227Z,10.79
2018-09-16T01:04:41.865Z,10.77
2018-09-16T01:07:10.341Z,10.80
2018-09-16T01:09:38.925Z,10.81
2018-09-16T01:12:07.422Z,10.67
2018-09-16T01:14:35.735Z,10.74
2018-09-16T01:17:04.132Z,10.72
2018-09-16T01:19:32.435Z,10.75
2018-09-16T01:22:00.892Z,10.63
2018-09-16T01:24:29.424Z,10.60
2018-09-16T01:26:58.052Z,10.65
2018-09-16T01:29:26.551Z,10.61
2018-09-16T01:31:54.983Z,10.52
2018-09-16T01:34:23.314Z,10.54
2018-09-16T01:36:51.694Z,10.60
2018-09-16T01:39:20.666Z,10.65
2018-09-16T01:41:49.122Z,10.59
2018-09-16T01:44:17.490Z,10.50
2018-09-16T01:46:45.855Z,10.49
2018-09-16T01:49:14.219Z,10.50
2018-09-16T01:51:42.657Z,10.49
2018-09-16T01:54:11.163Z,10.46
2018-09-16T01:56:39.965Z,10.49
2018-09-16T01:59:08.263Z,10.50
2018-09-16T02:01:36.580Z,10.49
2018-09-16T02:04:05.406Z,10.50
2018-09-16T02:06:33.959Z,10.46
2018-09-16T02:09:02.499Z,10.48
2018-09-16T02:11:30.810Z,10.47
2018-09-16T02:13:59.190Z,10.47
2018-09-16T02:16:28.116Z,10.52
2018-09-16T02:18:56.406Z,10.50
2018-09-16T02:21:24.706Z,10.51
2018-09-16T02:23:53.286Z,10.49
2018-09-16T02:26:21.832Z,10.43
2018-09-16T02:28:50.266Z,10.46
2018-09-16T02:31:18.600Z,10.51
2018-09-16T02:33:47.006Z,10.51
2018-09-16T02:36:15.360Z,10.47
2018-09-16T02:38:43.733Z,10.46
2018-09-16T02:41:12.368Z,10.45
2018-09-16T02:43:41.001Z,10.43
2018-09-16T02:46:09.998Z,10.45
2018-09-16T02:48:38.296Z,10.38
2018-09-16T02:51:06.889Z,10.35
2018-09-16T02:53:35.204Z,10.42
2018-09-16T02:56:03.808Z,10.38
2018-09-16T02:58:32.270Z,10.39
2018-09-16T03:01:00.590Z,10.33
2018-09-16T03:03:28.866Z,10.30
2018-09-16T03:05:57.328Z,10.33
2018-09-16T03:08:25.850Z,10.25
2018-09-16T03:10:54.391Z,10.26
2018-09-16T03:13:22.986Z,10.24
2018-09-16T03:15:51.737Z,10.19
2018-09-16T03:18:20.227Z,10.18
2018-09-16T03:20:48.545Z,10.19
2018-09-16T03:23:16.997Z,10.11
2018-09-16T03:25:46.224Z,10.16
2018-09-16T03:28:15.065Z,10.12
2018-09-16T03:30:43.381Z,10.05
2018-09-16T03:33:12.087Z,10.08
2018-09-16T03:35:40.626Z,10.02
2018-09-16T03:38:08.949Z,10.01
2018-09-16T03:40:37.243Z,9.95
2018-09-16T03:43:05.502Z,9.97
2018-09-16T03:45:34.259Z,9.90
2018-09-16T03:48:02.594Z,9.87
2018-09-16T03:50:30.921Z,9.88
2018-09-16T03:52:59.279Z,9.91
2018-09-16T03:55:27.592Z,9.88
2018-09-16T03:57:55.878Z,9.85
2018-09-16T04:03:19.994Z,9.81
2018-09-16T04:05:48.348Z,9.93
2018-09-16T04:08:16.648Z,9.95
2018-09-16T04:10:44.970Z,9.92
2018-09-16T04:13:13.212Z,9.92
2018-09-16T04:15:41.563Z,9.90
2018-09-16T04:18:10.143Z,9.79
2018-09-16T04:20:38.490Z,9.75
2018-09-16T04:23:06.895Z,9.74
2018-09-16T04:25:35.639Z,9.78
2018-09-16T04:28:03.887Z,9.87
2018-09-16T04:30:32.199Z,9.76
2018-09-16T04:33:00.485Z,9.76
2018-09-16T04:35:28.962Z,9.74
2018-09-16T04:37:57.384Z,9.71
2018-09-16T04:40:26.095Z,9.72
2018-09-16T04:42:54.634Z,9.69
2018-09-16T04:45:22.980Z,9.74
2018-09-16T04:47:51.277Z,9.70
2018-09-16T04:50:19.929Z,9.65
2018-09-16T04:52:48.393Z,9.70
2018-09-16T04:55:16.751Z,9.66
2018-09-16T04:57:45.466Z,9.68
2018-09-16T05:00:13.973Z,9.71
2018-09-16T05:02:42.595Z,9.67
2018-09-16T05:05:11.263Z,9.70
2018-09-16T05:07:39.542Z,9.69
2018-09-16T05:10:07.879Z,9.72
2018-09-16T05:12:36.171Z,9.63
2018-09-16T05:15:04.608Z,9.72
2018-09-16T05:17:33.110Z,9.74
2018-09-16T05:20:01.582Z,9.76
2018-09-16T05:22:29.958Z,9.84
2018-09-16T05:24:58.233Z,9.83
2018-09-16T05:27:26.707Z,9.81
2018-09-16T05:29:55.579Z,9.90
2018-09-16T05:32:23.923Z,9.86
2018-09-16T05:34:52.276Z,9.82
2018-09-16T05:37:20.822Z,9.83
2018-09-16T05:39:49.156Z,9.89
2018-09-16T05:42:17.497Z,9.90
2018-09-16T05:44:45.774Z,9.93
2018-09-16T05:47:14.372Z,10.01
2018-09-16T05:49:42.679Z,10.02
2018-09-16T05:52:10.962Z,10.03
2018-09-16T05:54:39.325Z,10.16
2018-09-16T05:57:07.776Z,10.22
2018-09-16T05:59:36.124Z,10.32
2018-09-16T06:02:04.941Z,10.34
2018-09-16T06:04:33.473Z,10.39
2018-09-16T06:07:02.961Z,10.47
2018-09-16T06:09:31.282Z,10.54
2018-09-16T06:11:59.703Z,10.61
2018-09-16T06:14:28.796Z,10.74
2018-09-16T06:16:57.789Z,10.92
2018-09-16T06:19:26.189Z,11.09
2018-09-16T06:21:54.489Z,11.31
2018-09-16T06:24:22.888Z,11.57
2018-09-16T06:26:51.222Z,11.80
2018-09-16T06:29:19.560Z,11.95
2018-09-16T06:31:47.910Z,12.04
2018-09-16T06:34:16.227Z,12.18
2018-09-16T06:36:44.871Z,12.07
2018-09-16T06:39:14.786Z,12.30
2018-09-16T06:41:43.598Z,12.50
2018-09-16T06:44:12.153Z,12.48
2018-09-16T06:46:40.751Z,12.81
2018-09-16T06:49:09.097Z,13.08
2018-09-16T06:51:37.990Z,13.10
2018-09-16T06:54:06.369Z,13.38
2018-09-16T06:56:35.206Z,13.54
2018-09-16T06:59:03.720Z,13.73
2018-09-16T07:01:32.206Z,13.92
2018-09-16T07:04:00.705Z,13.99
2018-09-16T07:06:33.365Z,14.12
2018-09-16T07:09:02.081Z,14.16
2018-09-16T07:11:31.497Z,14.29
2018-09-16T07:14:00.192Z,14.43
2018-09-16T07:16:28.931Z,14.53
2018-09-16T07:18:57.274Z,14.61
2018-09-16T07:21:26.366Z,14.69
2018-09-16T07:23:55.020Z,14.81
2018-09-16T07:26:23.402Z,15.02
2018-09-16T07:28:51.714Z,15.15
2018-09-16T07:31:20.046Z,15.20
2018-09-16T07:33:48.703Z,15.19
2018-09-16T07:36:16.957Z,15.38
2018-09-16T07:38:45.267Z,15.50
2018-09-16T07:41:14.014Z,15.54
2018-09-16T07:43:42.477Z,15.81
2018-09-16T07:46:10.926Z,15.75
2018-09-16T07:48:39.239Z,16.00
2018-09-16T07:51:07.811Z,16.08
2018-09-16T07:53:36.196Z,16.19
2018-09-16T07:56:04.536Z,16.31
2018-09-16T07:58:33.299Z,16.40
2018-09-16T08:01:01.969Z,16.46
2018-09-16T08:03:30.376Z,16.50
2018-09-16T08:05:58.920Z,16.61
2018-09-16T08:08:27.523Z,16.70
2018-09-16T08:10:55.825Z,16.75
2018-09-16T08:13:24.100Z,16.83
2018-09-16T08:15:52.405Z,16.94
2018-09-16T08:18:20.726Z,16.94
2018-09-16T08:20:49.266Z,17.15
2018-09-16T08:23:17.618Z,17.15
2018-09-16T08:25:46.503Z,17.36
2018-09-16T08:28:14.793Z,17.43
2018-09-16T08:30:44.167Z,17.47
2018-09-16T08:33:13.152Z,17.61
2018-09-16T08:35:41.469Z,17.74
2018-09-16T08:38:09.967Z,17.68
2018-09-16T08:40:38.598Z,17.75
2018-09-16T08:43:07.591Z,17.88
2018-09-16T08:45:35.926Z,18.01
2018-09-16T08:48:04.223Z,18.13
2018-09-16T08:50:32.497Z,18.23
2018-09-16T08:53:00.794Z,18.13
2018-09-16T08:55:29.103Z,18.10
2018-09-16T08:57:57.660Z,18.13
2018-09-16T09:00:26.165Z,18.19
2018-09-16T09:02:54.562Z,18.20
2018-09-16T09:05:25.695Z,18.39
2018-09-16T09:07:56.550Z,18.67
2018-09-16T09:10:26.548Z,18.74
2018-09-16T09:12:55.118Z,18.84
2018-09-16T09:15:23.481Z,18.88
2018-09-16T09:17:52.320Z,18.87
2018-09-16T09:20:20.946Z,18.76
2018-09-16T09:22:49.217Z,18.77
2018-09-16T09:25:18.002Z,18.73
2018-09-16T09:27:46.319Z,18.68
2018-09-16T09:30:14.798Z,18.99
2018-09-16T09:32:46.552Z,18.89
2018-09-16T09:35:15.610Z,18.93
2018-09-16T09:37:45.882Z,19.41
2018-09-16T09:40:14.730Z,19.33
2018-09-16T09:42:45.612Z,19.10
2018-09-16T09:45:15.814Z,19.24
2018-09-16T09:47:45.836Z,19.46
2018-09-16T09:50:14.420Z,19.44
2018-09-16T09:52:42.760Z,19.34
2018-09-16T09:55:12.297Z,19.58
2018-09-16T09:57:41.146Z,19.54
2018-09-16T10:00:09.503Z,19.99
2018-09-16T10:02:38.459Z,20.23
2018-09-16T10:05:08.686Z,20.17
2018-09-16T10:07:37.007Z,20.09
2018-09-16T10:10:05.540Z,19.88
2018-09-16T10:12:34.741Z,20.16
2018-09-16T10:15:03.281Z,20.45
2018-09-16T10:17:31.799Z,20.77
2018-09-16T10:20:00.449Z,20.59
2018-09-16T10:22:28.854Z,20.83
2018-09-16T10:24:58.022Z,20.63
2018-09-16T10:27:26.636Z,20.54
2018-09-16T10:29:54.952Z,20.33
2018-09-16T10:32:23.362Z,20.68
2018-09-16T10:34:52.991Z,20.82
2018-09-16T10:37:21.324Z,20.74
2018-09-16T10:39:49.832Z,20.68
2018-09-16T10:42:19.898Z,20.45
2018-09-16T10:44:54.900Z,20.83
2018-09-16T10:47:23.251Z,21.04
2018-09-16T10:49:52.118Z,21.23
2018-09-16T10:52:20.677Z,21.31
2018-09-16T10:54:50.129Z,21.16
2018-09-16T10:57:21.100Z,21.70
2018-09-16T10:59:49.775Z,20.97
2018-09-16T11:02:20.437Z,21.36
2018-09-16T11:04:49.118Z,21.20
2018-09-16T11:07:19.005Z,21.35
2018-09-16T11:09:48.719Z,21.54
2018-09-16T11:12:17.454Z,20.95
2018-09-16T11:14:48.285Z,20.75
2018-09-16T11:17:17.314Z,21.41
2018-09-16T11:19:45.851Z,23.11
2018-09-16T11:22:14.266Z,24.12
2018-09-16T11:24:42.998Z,24.37
2018-09-16T11:27:11.386Z,25.16
2018-09-16T11:29:39.830Z,25.71
2018-09-16T11:32:08.161Z,25.35
2018-09-16T11:34:36.901Z,25.39
2018-09-16T11:37:09.253Z,24.19
2018-09-16T11:39:37.655Z,23.97
2018-09-16T11:42:06.559Z,24.24
2018-09-16T11:44:36.026Z,24.87
2018-09-16T11:47:06.329Z,24.47
2018-09-16T11:49:35.431Z,23.54
2018-09-16T11:52:03.988Z,24.04
2018-09-16T11:54:33.674Z,23.52
2018-09-16T11:57:06.074Z,23.34
2018-09-16T11:59:35.364Z,23.29
2018-09-16T12:02:05.988Z,23.50
2018-09-16T12:04:34.294Z,24.31
2018-09-16T12:07:03.194Z,25.20
2018-09-16T12:09:31.644Z,26.00
2018-09-16T12:12:02.893Z,24.51
2018-09-16T12:14:31.503Z,25.83
2018-09-16T12:17:00.953Z,26.03
2018-09-16T12:19:29.957Z,26.65
2018-09-16T12:21:58.939Z,27.01
2018-09-16T12:24:27.217Z,27.31
2018-09-16T12:26:55.519Z,27.71
2018-09-16T12:29:24.292Z,25.97
2018-09-16T12:31:52.988Z,23.81
2018-09-16T12:34:21.294Z,23.53
2018-09-16T12:36:50.976Z,25.45
2018-09-16T12:39:19.296Z,26.77
2018-09-16T12:41:47.802Z,23.63
2018-09-16T12:44:16.221Z,24.04
2018-09-16T12:46:45.451Z,23.28
2018-09-16T12:49:15.458Z,27.09
2018-09-16T12:51:43.914Z,25.85
2018-09-16T12:54:13.087Z,26.68
2018-09-16T12:56:41.708Z,28.06
2018-09-16T12:59:10.308Z,29.98
2018-09-16T13:01:38.859Z,29.29
2018-09-16T13:04:08.123Z,30.72
2018-09-16T13:06:36.654Z,30.20
2018-09-16T13:09:08.503Z,30.10
2018-09-16T13:11:36.980Z,29.26
2018-09-16T13:14:05.414Z,29.00
2018-09-16T13:16:34.416Z,24.89
2018-09-16T13:19:03.402Z,24.55
2018-09-16T13:21:31.776Z,29.12
2018-09-16T13:24:00.168Z,30.67
2018-09-16T13:26:30.133Z,27.81
2018-09-16T13:28:58.463Z,27.15
2018-09-16T13:31:26.830Z,24.65
2018-09-16T13:33:55.773Z,24.41
2018-09-16T13:36:25.037Z,26.86
2018-09-16T13:38:53.777Z,25.19
2018-09-16T13:41:24.209Z,23.55
2018-09-16T13:43:53.677Z,23.39
2018-09-16T13:46:22.781Z,25.33
2018-09-16T13:48:52.111Z,23.62
2018-09-16T13:51:21.923Z,23.58
2018-09-16T13:53:50.559Z,23.68
2018-09-16T13:56:19.490Z,25.13
2018-09-16T13:58:50.502Z,27.51
2018-09-16T14:01:18.876Z,24.26
2018-09-16T14:03:47.578Z,23.84
2018-09-16T14:06:18.018Z,23.63
2018-09-16T14:08:46.469Z,23.79
2018-09-16T14:11:14.852Z,23.73
2018-09-16T14:13:46.257Z,23.69
2018-09-16T14:16:15.902Z,23.32
2018-09-16T14:18:47.749Z,23.52
2018-09-16T14:21:18.086Z,23.31
2018-09-16T14:23:48.513Z,23.27
2018-09-16T14:26:18.909Z,23.10
2018-09-16T14:28:47.291Z,23.09
2018-09-16T14:31:15.795Z,23.24
2018-09-16T14:33:44.903Z,23.31
2018-09-16T14:36:13.363Z,23.06
2018-09-16T14:38:44.322Z,22.97
2018-09-16T14:41:14.212Z,23.11
2018-09-16T14:43:44.145Z,22.84
2018-09-16T14:46:13.051Z,22.74
2018-09-16T14:48:41.989Z,22.54
2018-09-16T14:51:10.788Z,22.35
2018-09-16T14:53:39.501Z,22.44
2018-09-16T14:56:08.240Z,22.47
2018-09-16T14:58:36.858Z,22.55
2018-09-16T15:01:07.426Z,22.40
2018-09-16T15:03:36.413Z,22.52
2018-09-16T15:06:06.440Z,22.45
2018-09-16T15:08:36.352Z,22.20
2018-09-16T15:11:07.032Z,22.37
2018-09-16T15:13:36.841Z,22.56
2018-09-16T15:16:05.653Z,22.62
2018-09-16T15:18:34.253Z,22.39
2018-09-16T15:21:02.684Z,22.33
2018-09-16T15:23:32.517Z,22.26
2018-09-16T15:26:01.447Z,22.01
2018-09-16T15:28:30.109Z,21.78
2018-09-16T15:30:59.335Z,21.67
2018-09-16T15:33:28.970Z,21.36
2018-09-16T15:35:57.461Z,21.34
2018-09-16T15:38:25.786Z,21.12
2018-09-16T15:40:54.591Z,20.91
2018-09-16T15:43:23.889Z,20.87
2018-09-16T15:45:52.582Z,21.01
2018-09-16T15:48:21.862Z,20.93
2018-09-16T15:50:51.850Z,20.75
2018-09-16T15:53:20.859Z,20.61
2018-09-16T15:55:49.452Z,20.52
2018-09-16T15:58:17.758Z,20.35
2018-09-16T16:00:46.876Z,20.47
2018-09-16T16:03:17.622Z,20.37
2018-09-16T16:05:46.553Z,20.19
2018-09-16T16:08:15.827Z,20.15
2018-09-16T16:10:45.136Z,20.25
2018-09-16T16:13:14.554Z,20.20
2018-09-16T16:15:43.466Z,20.10
2018-09-16T16:18:11.914Z,20.09
2018-09-16T16:20:42.483Z,20.07
2018-09-16T16:23:11.471Z,19.86
2018-09-16T16:25:40.238Z,19.81
2018-09-16T16:28:08.803Z,19.72
2018-09-16T16:30:41.770Z,19.67
2018-09-16T16:33:10.753Z,19.57
2018-09-16T16:35:39.736Z,19.69
2018-09-16T16:38:09.836Z,19.49
2018-09-16T16:40:41.588Z,19.40
2018-09-16T16:43:11.989Z,19.30
2018-09-16T16:45:44.847Z,19.26
2018-09-16T16:48:14.039Z,19.16
2018-09-16T16:50:42.727Z,19.12
2018-09-16T16:53:13.208Z,18.96
2018-09-16T16:55:43.630Z,18.82
2018-09-16T16:58:11.977Z,18.65
2018-09-16T17:00:41.035Z,18.53
2018-09-16T17:03:12.547Z,18.46
2018-09-16T17:05:44.108Z,18.29
2018-09-16T17:08:12.496Z,18.33
2018-09-16T17:10:42.910Z,18.21
2018-09-16T17:13:16.013Z,18.24
2018-09-16T17:15:45.075Z,18.21
2018-09-16T17:18:13.375Z,17.95
2018-09-16T17:20:49.598Z,17.98
2018-09-16T17:23:24.451Z,17.85
2018-09-16T17:25:53.848Z,17.70
2018-09-16T17:28:23.151Z,17.67
2018-09-16T17:30:52.089Z,17.63
2018-09-16T17:33:21.068Z,17.54
2018-09-16T17:35:49.533Z,17.49
2018-09-16T17:38:17.940Z,17.42
2018-09-16T17:40:47.368Z,17.28
2018-09-16T17:43:15.747Z,17.36
2018-09-16T17:45:44.618Z,17.24
2018-09-16T17:48:13.434Z,17.15
2018-09-16T17:50:42.654Z,17.06
2018-09-16T17:53:13.392Z,16.97
2018-09-16T17:55:42.736Z,17.01
2018-09-16T17:58:13.332Z,16.92
2018-09-16T18:00:41.867Z,16.79
2018-09-16T18:03:12.481Z,16.69
2018-09-16T18:05:41.702Z,16.65
2018-09-16T18:10:44.650Z,16.61
2018-09-16T18:13:14.860Z,16.48
2018-09-16T18:15:45.201Z,16.36
2018-09-16T18:18:15.429Z,16.28
2018-09-16T18:20:46.572Z,16.26
2018-09-16T18:23:17.157Z,16.17
2018-09-16T18:25:50.609Z,16.06
2018-09-16T18:28:21.332Z,16.03
2018-09-16T18:30:53.408Z,16.01
2018-09-16T18:33:25.223Z,16.00
2018-09-16T18:36:00.071Z,15.94
2018-09-16T18:38:30.583Z,15.90
2018-09-16T18:41:00.201Z,15.91
2018-09-16T18:43:32.858Z,15.75
2018-09-16T18:46:03.451Z,15.67
2018-09-16T18:48:36.089Z,15.54
2018-09-16T18:51:06.714Z,15.52
2018-09-16T18:53:36.794Z,15.51
2018-09-16T18:56:07.749Z,15.53
2018-09-16T18:58:37.302Z,15.45
2018-09-16T19:01:05.962Z,15.45
2018-09-16T19:03:36.697Z,15.34
2018-09-16T19:06:11.866Z,15.33
2018-09-16T19:08:42.893Z,15.31
2018-09-16T19:11:15.387Z,15.34
2018-09-16T19:13:46.414Z,15.19
2018-09-16T19:16:17.549Z,15.16
2018-09-16T19:18:46.709Z,15.06
2018-09-16T19:21:16.196Z,15.01
2018-09-16T19:23:45.050Z,14.94
2018-09-16T19:26:14.843Z,15.06
2018-09-16T19:28:44.767Z,15.02
2018-09-16T19:31:15.299Z,14.83
2018-09-16T19:33:45.400Z,14.92
2018-09-16T19:36:14.625Z,14.86
2018-09-16T19:38:45.567Z,14.87
2018-09-16T19:41:15.338Z,14.79
2018-09-16T19:43:44.947Z,14.73
2018-09-16T19:46:13.898Z,14.69
2018-09-16T19:48:42.659Z,14.65
2018-09-16T19:51:12.456Z,14.63
2018-09-16T19:53:41.681Z,14.53
2018-09-16T19:56:11.686Z,14.51
2018-09-16T19:58:40.444Z,14.47
2018-09-16T20:01:09.128Z,14.35
2018-09-16T20:03:38.918Z,14.23
2018-09-16T20:06:08.049Z,14.35
2018-09-16T20:08:37.087Z,14.23
2018-09-16T20:11:06.717Z,14.16
2018-09-16T20:13:35.867Z,14.16
2018-09-16T20:16:05.775Z,14.02
2018-09-16T20:18:34.742Z,13.96
2018-09-16T20:21:03.091Z,13.95
2018-09-16T20:23:31.829Z,13.88
2018-09-16T20:26:02.441Z,13.86
2018-09-16T20:28:30.926Z,13.85
2018-09-16T20:30:59.417Z,13.86
2018-09-16T20:33:27.796Z,13.78
2018-09-16T20:35:56.174Z,13.71
2018-09-16T20:38:25.244Z,13.65
2018-09-16T20:40:55.280Z,13.59
2018-09-16T20:43:24.254Z,13.74
2018-09-16T20:45:53.129Z,13.68
2018-09-16T20:48:21.750Z,13.50
2018-09-16T20:50:50.354Z,13.44
2018-09-16T20:53:19.017Z,13.44
2018-09-16T20:55:49.723Z,13.35
2018-09-16T20:58:18.135Z,13.25
2018-09-16T21:00:46.665Z,13.27
2018-09-16T21:03:17.373Z,13.17
2018-09-16T21:05:55.294Z,13.33
2018-09-16T21:08:25.909Z,13.35
2018-09-16T21:10:55.184Z,13.09
2018-09-16T21:13:23.480Z,13.13
2018-09-16T21:15:51.818Z,13.17
2018-09-16T21:18:20.447Z,13.24
2018-09-16T21:20:50.947Z,13.18
2018-09-16T21:23:19.335Z,13.25
2018-09-16T21:25:51.330Z,13.19
2018-09-16T21:28:20.106Z,13.12
2018-09-16T21:30:48.977Z,13.12
2018-09-16T21:33:18.697Z,13.24
2018-09-16T21:35:47.178Z,13.14
2018-09-16T21:38:15.566Z,13.14
2018-09-16T21:40:43.932Z,13.08
2018-09-16T21:43:13.843Z,13.29
2018-09-16T21:45:42.556Z,13.15
2018-09-16T21:48:12.404Z,13.06
2018-09-16T21:50:42.074Z,13.23
2018-09-16T21:53:12.011Z,13.24
2018-09-16T21:55:41.206Z,13.10
2018-09-16T21:58:10.259Z,13.17
2018-09-16T22:00:38.747Z,13.14
2018-09-16T22:03:06.920Z,13.14
2018-09-16T22:05:36.835Z,13.20
2018-09-16T22:08:06.455Z,13.09
2018-09-16T22:10:35.221Z,13.08
2018-09-16T22:13:03.914Z,13.26
2018-09-16T22:15:35.252Z,13.11
2018-09-16T22:18:05.680Z,13.18
2018-09-16T22:20:38.170Z,13.15
2018-09-16T22:23:08.446Z,13.23
2018-09-16T22:25:39.158Z,13.17
2018-09-16T22:28:09.551Z,13.22
2018-09-16T22:30:39.157Z,13.21
2018-09-16T22:33:09.383Z,13.15
2018-09-16T22:35:38.275Z,13.23
2018-09-16T22:38:06.831Z,13.27
2018-09-16T22:40:35.198Z,13.31
2018-09-16T22:43:34.506Z,13.18
2018-09-16T22:46:03.022Z,13.23
2018-09-16T22:48:31.367Z,13.23
2018-09-16T22:50:59.698Z,13.18
2018-09-16T22:53:28.523Z,13.18
2018-09-16T22:55:57.662Z,13.14
2018-09-16T22:58:26.425Z,13.25
2018-09-16T23:00:55.024Z,13.21
2018-09-16T23:03:24.571Z,13.24
2018-09-16T23:05:53.249Z,13.10
2018-09-16T23:08:21.685Z,13.09
2018-09-16T23:10:50.595Z,13.11
2018-09-16T23:13:18.940Z,13.01
2018-09-16T23:15:47.444Z,13.12
2018-09-16T23:18:15.741Z,13.15
2018-09-16T23:20:44.086Z,13.14
2018-09-16T23:23:13.625Z,13.02
2018-09-16T23:25:42.297Z,13.03
2018-09-16T23:28:10.618Z,12.90
2018-09-16T23:30:39.002Z,12.85
2018-09-16T23:33:07.367Z,12.84
2018-09-16T23:35:36.815Z,12.84
2018-09-16T23:38:06.286Z,12.69
2018-09-16T23:40:34.822Z,12.70
2018-09-16T23:43:03.366Z,12.63
2018-09-16T23:45:31.944Z,12.59
2018-09-16T23:48:01.451Z,12.66
2018-09-16T23:50:30.248Z,12.67
2018-09-16T23:52:58.760Z,12.53
2018-09-16T23:55:27.632Z,12.51
2018-09-16T23:57:56.033Z,12.64
